Time;durP1;ratioP1;P1;durP2;ratioP2;P2;SDS_P1;SDS_P2;PMS_P1;PMS_P2;Temp;Humidity;BMP_temperature;BMP_pressure;BME280_temperature;BME280_humidity;BME280_pressure;Samples;Min_cycle;Max_cycle;Signal;HPM_P1;HPM_P2
2022/01/01 00:02:43;;;;;;;15.43;13.02;;;;;;;;;;10347886;28;20216;-77
2022/01/01 00:07:44;;;;;;;17.90;12.20;;;;;;;;;;10345645;28;20792;-76
2022/01/01 00:12:46;;;;;;;17.60;11.90;;;;;;;;;;10339434;28;20301;-77
2022/01/01 00:17:48;;;;;;;19.85;11.55;;;;;;;;;;10348283;28;20214;-76
2022/01/01 00:22:49;;;;;;;15.13;11.77;;;;;;;;;;10352926;28;20200;-76
2022/01/01 00:27:50;;;;;;;14.95;9.95;;;;;;;;;;10348243;28;20215;-76
2022/01/01 00:32:51;;;;;;;15.07;10.13;;;;;;;;;;10346948;28;20222;-76
2022/01/01 00:37:52;;;;;;;11.25;9.43;;;;;;;;;;10355189;28;20726;-76
2022/01/01 00:42:53;;;;;;;11.77;10.57;;;;;;;;;;10358776;28;20206;-77
2022/01/01 00:47:54;;;;;;;12.05;9.75;;;;;;;;;;10352131;28;20231;-77
2022/01/01 00:52:55;;;;;;;18.15;10.93;;;;;;;;;;10349603;28;20313;-77
2022/01/01 00:57:56;;;;;;;20.17;10.80;;;;;;;;;;10344858;28;20204;-77
2022/01/01 01:02:57;;;;;;;12.68;10.57;;;;;;;;;;10346767;28;20596;-77
2022/01/01 01:07:58;;;;;;;11.13;9.48;;;;;;;;;;10331642;28;20216;-77
2022/01/01 01:12:59;;;;;;;12.57;10.05;;;;;;;;;;10350516;28;20692;-77
2022/01/01 01:18:00;;;;;;;15.45;10.88;;;;;;;;;;10352032;28;21283;-77
2022/01/01 01:23:01;;;;;;;14.32;9.35;;;;;;;;;;10349719;28;20207;-77
2022/01/01 01:28:07;;;;;;;13.98;9.68;;;;;;;;;;10350145;28;20598;-77
2022/01/01 01:33:09;;;;;;;11.93;9.73;;;;;;;;;;10335713;28;20230;-77
2022/01/01 01:38:10;;;;;;;15.50;9.25;;;;;;;;;;10345534;28;20215;-76
2022/01/01 01:43:12;;;;;;;16.63;10.07;;;;;;;;;;10346375;28;20214;-77
2022/01/01 01:48:13;;;;;;;18.83;10.32;;;;;;;;;;10343748;28;20768;-76
2022/01/01 01:53:15;;;;;;;11.50;10.05;;;;;;;;;;10348680;28;20206;-77
2022/01/01 01:58:16;;;;;;;13.50;9.80;;;;;;;;;;10341696;28;20208;-77
2022/01/01 02:03:17;;;;;;;15.30;9.80;;;;;;;;;;10346756;28;21001;-77
2022/01/01 02:08:19;;;;;;;16.63;9.30;;;;;;;;;;10345309;28;20218;-78
2022/01/01 02:13:27;;;;;;;13.10;9.65;;;;;;;;;;10335751;28;20208;-78
2022/01/01 02:18:28;;;;;;;12.50;9.70;;;;;;;;;;10342561;28;20299;-77
2022/01/01 02:23:29;;;;;;;18.27;10.40;;;;;;;;;;10330085;28;20802;-77
2022/01/01 02:28:30;;;;;;;16.92;10.75;;;;;;;;;;10334440;28;20225;-77
2022/01/01 02:33:32;;;;;;;14.60;10.10;;;;;;;;;;10332665;28;20215;-77
2022/01/01 02:38:33;;;;;;;13.85;10.13;;;;;;;;;;10353745;28;20207;-77
2022/01/01 02:43:44;;;;;;;15.30;10.80;;;;;;;;;;10348970;28;20282;-76
2022/01/01 02:48:45;;;;;;;14.95;10.85;;;;;;;;;;10346856;28;20216;-77
2022/01/01 02:53:46;;;;;;;16.83;10.82;;;;;;;;;;10349304;28;20814;-77
2022/01/01 02:58:47;;;;;;;17.75;11.18;;;;;;;;;;10355578;28;20207;-77
2022/01/01 03:03:48;;;;;;;14.93;10.52;;;;;;;;;;10339244;28;20246;-77
2022/01/01 03:08:51;;;;;;;16.02;10.95;;;;;;;;;;10360436;28;20219;-76
2022/01/01 03:13:52;;;;;;;14.70;11.38;;;;;;;;;;10364079;28;20223;-77
2022/01/01 03:18:53;;;;;;;19.33;11.00;;;;;;;;;;10361040;28;20218;-77
2022/01/01 03:23:55;;;;;;;16.98;10.93;;;;;;;;;;10361556;28;20286;-77
2022/01/01 03:28:56;;;;;;;13.57;10.05;;;;;;;;;;10358974;28;20243;-77
2022/01/01 03:33:58;;;;;;;18.00;11.50;;;;;;;;;;10364321;28;20219;-77
2022/01/01 03:38:59;;;;;;;14.95;11.48;;;;;;;;;;10362535;28;20207;-77
2022/01/01 03:44:00;;;;;;;16.52;11.45;;;;;;;;;;10360439;28;20207;-77
2022/01/01 03:49:01;;;;;;;16.52;11.70;;;;;;;;;;10339563;28;20978;-77
2022/01/01 03:54:02;;;;;;;15.57;10.95;;;;;;;;;;10361382;28;20203;-77
2022/01/01 03:59:03;;;;;;;16.63;11.35;;;;;;;;;;10362605;28;20199;-77
2022/01/01 04:04:04;;;;;;;16.20;11.05;;;;;;;;;;10361881;28;20227;-77
2022/01/01 04:09:05;;;;;;;16.98;11.30;;;;;;;;;;10341969;28;20215;-77
2022/01/01 04:14:11;;;;;;;21.45;11.00;;;;;;;;;;10355488;28;20204;-77
2022/01/01 04:19:12;;;;;;;18.02;11.57;;;;;;;;;;10357235;28;20816;-77
2022/01/01 04:24:13;;;;;;;17.98;11.90;;;;;;;;;;10359638;28;20216;-77
2022/01/01 04:29:14;;;;;;;14.63;11.48;;;;;;;;;;10358030;28;20226;-77
2022/01/01 04:34:15;;;;;;;18.80;11.50;;;;;;;;;;10354743;28;20340;-77
2022/01/01 04:39:16;;;;;;;15.15;12.02;;;;;;;;;;10338687;28;20284;-77
2022/01/01 04:44:17;;;;;;;16.98;11.52;;;;;;;;;;10356503;28;20257;-77
2022/01/01 04:49:19;;;;;;;16.90;11.40;;;;;;;;;;10358873;28;20294;-77
2022/01/01 04:54:20;;;;;;;16.48;11.50;;;;;;;;;;10358188;28;20203;-77
2022/01/01 04:59:21;;;;;;;19.25;11.60;;;;;;;;;;10338760;28;20211;-77
2022/01/01 05:04:22;;;;;;;16.60;11.30;;;;;;;;;;10358129;28;20220;-76
2022/01/01 05:09:23;;;;;;;18.88;11.63;;;;;;;;;;10354057;28;20216;-76
2022/01/01 05:14:25;;;;;;;14.82;10.93;;;;;;;;;;10355151;28;20298;-77
2022/01/01 05:19:26;;;;;;;17.45;10.68;;;;;;;;;;10352299;28;20203;-77
2022/01/01 05:24:27;;;;;;;14.80;10.32;;;;;;;;;;10332712;28;20219;-77
2022/01/01 05:29:28;;;;;;;16.83;10.90;;;;;;;;;;10359623;28;20226;-77
2022/01/01 05:34:29;;;;;;;17.05;10.68;;;;;;;;;;10359954;28;20223;-78
2022/01/01 05:39:30;;;;;;;13.88;9.85;;;;;;;;;;10335297;28;20692;-77
2022/01/01 05:44:31;;;;;;;12.75;10.10;;;;;;;;;;10351777;28;20204;-77
2022/01/01 05:49:32;;;;;;;16.95;9.70;;;;;;;;;;10338194;28;20211;-77
2022/01/01 05:54:33;;;;;;;10.88;9.48;;;;;;;;;;10337199;28;20631;-77
2022/01/01 05:59:34;;;;;;;17.42;10.40;;;;;;;;;;10350668;28;20218;-77
2022/01/01 06:04:35;;;;;;;21.30;10.40;;;;;;;;;;10351699;28;20212;-77
2022/01/01 06:09:37;;;;;;;16.20;10.25;;;;;;;;;;10360068;28;20235;-77
2022/01/01 06:14:38;;;;;;;18.10;10.18;;;;;;;;;;10355337;28;20224;-77
2022/01/01 06:19:39;;;;;;;18.58;10.40;;;;;;;;;;10356787;28;21149;-77
2022/01/01 06:24:40;;;;;;;22.23;10.27;;;;;;;;;;10358867;28;20214;-77
2022/01/01 06:29:41;;;;;;;16.48;10.38;;;;;;;;;;10358623;28;20219;-77
2022/01/01 06:34:42;;;;;;;20.55;10.95;;;;;;;;;;10350510;28;20219;-78
2022/01/01 06:39:43;;;;;;;16.30;10.73;;;;;;;;;;10344715;28;20207;-78
2022/01/01 06:44:44;;;;;;;18.98;10.75;;;;;;;;;;10346645;28;20203;-77
2022/01/01 06:49:45;;;;;;;22.65;10.63;;;;;;;;;;10344006;28;21320;-77
2022/01/01 06:54:46;;;;;;;19.40;10.93;;;;;;;;;;10357881;28;20235;-77
2022/01/01 06:59:47;;;;;;;18.60;10.60;;;;;;;;;;10364953;28;20211;-77
2022/01/01 07:04:48;;;;;;;20.55;11.07;;;;;;;;;;10361673;28;20223;-77
2022/01/01 07:09:49;;;;;;;15.02;10.73;;;;;;;;;;10359834;28;20743;-77
2022/01/01 07:14:50;;;;;;;16.27;10.60;;;;;;;;;;10366643;28;20204;-77
2022/01/01 07:19:51;;;;;;;13.80;10.45;;;;;;;;;;10366500;28;20777;-77
2022/01/01 07:24:52;;;;;;;17.88;10.98;;;;;;;;;;10363165;28;20230;-77
2022/01/01 07:29:53;;;;;;;18.80;11.00;;;;;;;;;;10358999;28;20292;-77
2022/01/01 07:34:55;;;;;;;20.20;10.73;;;;;;;;;;10361156;28;20944;-78
2022/01/01 07:39:56;;;;;;;20.33;11.93;;;;;;;;;;10361700;28;20238;-77
2022/01/01 07:44:57;;;;;;;19.80;11.95;;;;;;;;;;10348573;28;20204;-77
2022/01/01 07:49:58;;;;;;;20.13;11.60;;;;;;;;;;10343947;28;20227;-78
2022/01/01 07:54:59;;;;;;;15.88;11.80;;;;;;;;;;10359403;28;20211;-78
2022/01/01 08:00:00;;;;;;;19.50;12.73;;;;;;;;;;10364378;28;20302;-78
2022/01/01 08:05:01;;;;;;;22.83;14.70;;;;;;;;;;10360738;28;20246;-77
2022/01/01 08:10:03;;;;;;;20.63;13.77;;;;;;;;;;10364920;28;20211;-78
2022/01/01 08:15:05;;;;;;;24.38;14.38;;;;;;;;;;10363954;28;20212;-77
2022/01/01 08:20:06;;;;;;;22.90;13.90;;;;;;;;;;10355205;28;20262;-77
2022/01/01 08:25:07;;;;;;;27.00;16.10;;;;;;;;;;10358855;28;20215;-77
2022/01/01 08:30:09;;;;;;;22.45;16.10;;;;;;;;;;10363242;28;20243;-77
2022/01/01 08:35:10;;;;;;;27.05;16.10;;;;;;;;;;10358353;28;20283;-77
2022/01/01 08:40:11;;;;;;;26.02;15.98;;;;;;;;;;10360975;28;20624;-77
2022/01/01 08:45:12;;;;;;;26.55;16.88;;;;;;;;;;10357511;28;20200;-78
2022/01/01 08:50:13;;;;;;;26.52;16.63;;;;;;;;;;10352002;28;21004;-77
2022/01/01 08:55:14;;;;;;;25.92;16.58;;;;;;;;;;10357671;28;20207;-77
2022/01/01 09:00:16;;;;;;;29.85;18.33;;;;;;;;;;10356159;28;20546;-76
2022/01/01 09:05:17;;;;;;;25.27;17.48;;;;;;;;;;10339306;28;20208;-77
2022/01/01 09:10:20;;;;;;;29.75;18.13;;;;;;;;;;10358632;28;20220;-77
2022/01/01 09:15:21;;;;;;;24.58;17.63;;;;;;;;;;10353335;28;20200;-77
2022/01/01 09:20:22;;;;;;;25.33;17.42;;;;;;;;;;10357934;28;20207;-77
2022/01/01 09:25:23;;;;;;;27.65;17.80;;;;;;;;;;10340504;28;20231;-77
2022/01/01 09:30:24;;;;;;;25.05;17.67;;;;;;;;;;10340222;28;20223;-77
2022/01/01 09:35:25;;;;;;;30.42;18.15;;;;;;;;;;10357639;28;20200;-77
2022/01/01 09:40:26;;;;;;;29.60;18.33;;;;;;;;;;10354861;28;20204;-77
2022/01/01 09:45:28;;;;;;;34.65;18.92;;;;;;;;;;10351277;28;20231;-77
2022/01/01 09:50:29;;;;;;;24.13;17.35;;;;;;;;;;10352964;28;20231;-77
2022/01/01 09:55:30;;;;;;;30.48;18.70;;;;;;;;;;10352401;28;20212;-77
2022/01/01 10:00:31;;;;;;;27.63;16.98;;;;;;;;;;10348761;28;20207;-78
2022/01/01 10:05:32;;;;;;;25.70;17.52;;;;;;;;;;10360767;28;20579;-77
2022/01/01 10:10:34;;;;;;;28.77;17.95;;;;;;;;;;10357509;28;20229;-77
2022/01/01 10:15:36;;;;;;;30.45;17.42;;;;;;;;;;10361133;28;20195;-78
2022/01/01 10:20:43;;;;;;;28.58;17.17;;;;;;;;;;10357761;28;20333;-78
2022/01/01 10:31:08;;;;;;;25.55;16.45;;;;;;;;;;10345471;28;20270;-78
2022/01/01 10:36:10;;;;;;;29.65;16.17;;;;;;;;;;10368074;28;20253;-78
2022/01/01 10:41:13;;;;;;;27.88;15.88;;;;;;;;;;10373117;28;20807;-78
2022/01/01 10:46:15;;;;;;;25.15;15.32;;;;;;;;;;10366667;28;20204;-77
2022/01/01 10:51:18;;;;;;;24.55;14.95;;;;;;;;;;10363935;28;20203;-77
2022/01/01 10:56:21;;;;;;;26.27;15.10;;;;;;;;;;10366214;28;20231;-78
2022/01/01 11:01:22;;;;;;;23.98;14.38;;;;;;;;;;10362850;28;20970;-78
2022/01/01 11:06:23;;;;;;;25.40;14.85;;;;;;;;;;10341275;28;20207;-78
2022/01/01 11:11:25;;;;;;;23.08;13.32;;;;;;;;;;10362701;28;20258;-77
2022/01/01 11:16:26;;;;;;;17.98;12.57;;;;;;;;;;10347026;28;20189;-78
2022/01/01 11:21:27;;;;;;;22.38;12.30;;;;;;;;;;10351538;28;20187;-77
2022/01/01 11:26:28;;;;;;;17.10;12.52;;;;;;;;;;10358930;28;20227;-79
2022/01/01 11:31:30;;;;;;;20.65;11.98;;;;;;;;;;10364640;28;20247;-78
2022/01/01 11:36:34;;;;;;;23.17;12.52;;;;;;;;;;10359978;28;20295;-77
2022/01/01 11:41:43;;;;;;;14.98;10.82;;;;;;;;;;10359759;28;20215;-78
2022/01/01 11:46:56;;;;;;;19.23;11.80;;;;;;;;;;10345198;28;20219;-77
2022/01/01 11:51:58;;;;;;;22.45;11.80;;;;;;;;;;10361100;28;20250;-77
2022/01/01 11:56:59;;;;;;;20.25;11.70;;;;;;;;;;10356552;28;21206;-77
2022/01/01 12:02:02;;;;;;;22.58;11.50;;;;;;;;;;10356960;28;20244;-78
2022/01/01 12:07:28;;;;;;;15.60;10.82;;;;;;;;;;10363151;28;21004;-77
2022/01/01 12:12:39;;;;;;;19.83;10.45;;;;;;;;;;10368456;28;20192;-77
2022/01/01 12:17:44;;;;;;;18.73;9.82;;;;;;;;;;10359704;28;20215;-77
2022/01/01 12:22:46;;;;;;;16.55;8.95;;;;;;;;;;10362221;28;20220;-77
2022/01/01 12:27:48;;;;;;;15.20;8.40;;;;;;;;;;10338229;28;20220;-78
2022/01/01 12:32:53;;;;;;;18.40;9.35;;;;;;;;;;10354314;28;21147;-78
2022/01/01 12:38:06;;;;;;;12.00;8.20;;;;;;;;;;10356018;28;20299;-78
2022/01/01 12:43:11;;;;;;;14.40;7.95;;;;;;;;;;10348380;28;20199;-78
2022/01/01 12:48:13;;;;;;;15.55;7.63;;;;;;;;;;10360893;28;20966;-79
2022/01/01 12:53:14;;;;;;;13.70;7.45;;;;;;;;;;10363709;28;20570;-79
2022/01/01 12:58:21;;;;;;;16.50;6.68;;;;;;;;;;10361347;28;20204;-79
2022/01/01 13:03:22;;;;;;;15.52;6.32;;;;;;;;;;10343615;28;20272;-78
2022/01/01 13:08:23;;;;;;;14.70;6.18;;;;;;;;;;10348641;28;20220;-78
2022/01/01 13:13:24;;;;;;;13.18;6.55;;;;;;;;;;10362298;28;20238;-78
2022/01/01 13:18:27;;;;;;;12.27;6.15;;;;;;;;;;10364783;28;20210;-78
2022/01/01 13:23:28;;;;;;;10.70;6.00;;;;;;;;;;10363529;28;20200;-79
2022/01/01 13:28:30;;;;;;;13.38;6.75;;;;;;;;;;10343189;28;20223;-78
2022/01/01 13:33:32;;;;;;;10.43;5.53;;;;;;;;;;10346054;28;20212;-78
2022/01/01 13:38:35;;;;;;;7.82;6.05;;;;;;;;;;10338188;28;20213;-79
2022/01/01 13:43:37;;;;;;;9.93;6.43;;;;;;;;;;10372892;28;20205;-78
2022/01/01 13:48:43;;;;;;;10.75;6.22;;;;;;;;;;10368666;28;20460;-79
2022/01/01 13:53:44;;;;;;;10.32;6.65;;;;;;;;;;10378284;28;20276;-78
2022/01/01 13:58:49;;;;;;;13.82;6.63;;;;;;;;;;10374865;28;20214;-78
2022/01/01 14:03:50;;;;;;;8.68;6.18;;;;;;;;;;10366685;28;20216;-78
2022/01/01 14:08:59;;;;;;;12.45;6.75;;;;;;;;;;10361634;28;20249;-77
2022/01/01 14:14:07;;;;;;;11.77;5.88;;;;;;;;;;10346225;28;20202;-78
2022/01/01 14:19:13;;;;;;;14.75;8.00;;;;;;;;;;10369046;28;20196;-78
2022/01/01 14:24:18;;;;;;;14.85;9.95;;;;;;;;;;10366420;28;20216;-78
2022/01/01 14:29:22;;;;;;;6.90;6.22;;;;;;;;;;10359655;28;20215;-77
2022/01/01 14:34:23;;;;;;;13.20;5.97;;;;;;;;;;10366205;28;20220;-79
2022/01/01 14:39:24;;;;;;;8.05;4.40;;;;;;;;;;10371058;28;20212;-77
2022/01/01 14:44:25;;;;;;;7.60;5.32;;;;;;;;;;10373433;28;20203;-79
2022/01/01 14:49:46;;;;;;;5.95;4.68;;;;;;;;;;10373894;28;20272;-78
2022/01/01 14:55:00;;;;;;;6.55;4.15;;;;;;;;;;10381642;28;20684;-78
2022/01/01 15:00:07;;;;;;;7.00;4.60;;;;;;;;;;10385046;28;20211;-78
2022/01/01 15:05:09;;;;;;;8.88;4.38;;;;;;;;;;10383692;28;20242;-77
2022/01/01 15:10:19;;;;;;;5.30;3.58;;;;;;;;;;10380184;28;20636;-77
2022/01/01 15:15:20;;;;;;;6.95;4.07;;;;;;;;;;10357473;28;20204;-80
2022/01/01 15:20:21;;;;;;;7.45;5.28;;;;;;;;;;10373466;28;23772;-78
2022/01/01 15:25:26;;;;;;;5.85;3.88;;;;;;;;;;10377540;28;20200;-77
2022/01/01 15:30:36;;;;;;;8.00;4.95;;;;;;;;;;10375859;28;20238;-78
2022/01/01 15:40:56;;;;;;;4.88;4.45;;;;;;;;;;10365052;28;20323;-76
2022/01/01 15:45:57;;;;;;;10.05;7.18;;;;;;;;;;10341500;28;20219;-76
2022/01/01 15:51:01;;;;;;;6.95;5.82;;;;;;;;;;10365435;28;20215;-76
2022/01/01 15:56:04;;;;;;;9.10;5.25;;;;;;;;;;10337185;28;20203;-76
2022/01/01 16:01:10;;;;;;;7.13;4.72;;;;;;;;;;10335153;28;20250;-76
2022/01/01 16:06:13;;;;;;;9.52;5.22;;;;;;;;;;10355418;28;20933;-77
2022/01/01 16:11:15;;;;;;;9.98;5.20;;;;;;;;;;10355325;28;20762;-76
2022/01/01 16:16:16;;;;;;;5.25;4.70;;;;;;;;;;10356088;28;20199;-76
2022/01/01 16:21:18;;;;;;;6.32;4.43;;;;;;;;;;10338153;28;20207;-76
2022/01/01 16:26:20;;;;;;;7.55;4.63;;;;;;;;;;10359566;28;20307;-76
2022/01/01 16:31:21;;;;;;;4.95;4.38;;;;;;;;;;10353891;28;20228;-76
2022/01/01 16:36:26;;;;;;;7.22;5.90;;;;;;;;;;10338152;28;20199;-76
2022/01/01 16:41:42;;;;;;;7.90;6.50;;;;;;;;;;10356010;28;20581;-76
2022/01/01 16:46:51;;;;;;;7.22;5.90;;;;;;;;;;10350259;28;20269;-76
2022/01/01 16:51:57;;;;;;;12.57;5.43;;;;;;;;;;10354638;28;20200;-76
2022/01/01 16:56:59;;;;;;;7.72;4.95;;;;;;;;;;10349073;28;20200;-76
2022/01/01 17:02:11;;;;;;;4.88;4.45;;;;;;;;;;10352049;28;20217;-76
2022/01/01 17:07:12;;;;;;;4.25;3.78;;;;;;;;;;10337209;28;20361;-76
2022/01/01 17:12:13;;;;;;;7.95;4.82;;;;;;;;;;10349457;28;20207;-76
2022/01/01 17:17:19;;;;;;;16.38;10.45;;;;;;;;;;10354086;28;20206;-76
2022/01/01 17:22:38;;;;;;;10.98;6.05;;;;;;;;;;10361623;28;20295;-76
2022/01/01 17:27:47;;;;;;;9.48;5.80;;;;;;;;;;10363581;28;20226;-77
2022/01/01 17:32:49;;;;;;;5.65;4.57;;;;;;;;;;10357632;28;20594;-76
2022/01/01 17:43:23;;;;;;;3.83;3.53;;;;;;;;;;10360570;28;20705;-76
2022/01/01 17:48:30;;;;;;;5.03;3.72;;;;;;;;;;10372061;28;20223;-77
2022/01/01 17:53:35;;;;;;;9.40;4.22;;;;;;;;;;10363270;28;20561;-77
2022/01/01 17:58:37;;;;;;;6.00;3.70;;;;;;;;;;10355314;28;20208;-77
2022/01/01 18:03:39;;;;;;;13.65;4.45;;;;;;;;;;10359045;28;20247;-77
2022/01/01 18:08:43;;;;;;;6.18;3.90;;;;;;;;;;10355819;28;20319;-77
2022/01/01 18:13:46;;;;;;;5.10;3.50;;;;;;;;;;10359180;28;20216;-78
2022/01/01 18:18:47;;;;;;;3.97;3.53;;;;;;;;;;10344362;28;20227;-77
2022/01/01 18:24:10;;;;;;;5.47;3.55;;;;;;;;;;10360372;28;20210;-77
2022/01/01 18:29:12;;;;;;;4.82;3.17;;;;;;;;;;10360222;28;20234;-77
2022/01/01 18:34:13;;;;;;;6.53;3.15;;;;;;;;;;10365558;28;20273;-77
2022/01/01 18:39:14;;;;;;;3.95;3.33;;;;;;;;;;10362543;28;20559;-77
2022/01/01 18:44:18;;;;;;;4.80;3.30;;;;;;;;;;10368348;28;20196;-77
2022/01/01 18:49:19;;;;;;;8.90;3.40;;;;;;;;;;10363135;28;20752;-77
2022/01/01 18:54:23;;;;;;;5.60;3.53;;;;;;;;;;10359825;28;20299;-77
2022/01/01 18:59:31;;;;;;;7.07;6.38;;;;;;;;;;10358898;28;20285;-77
2022/01/01 19:04:35;;;;;;;4.20;3.40;;;;;;;;;;10355632;28;20223;-77
2022/01/01 19:09:40;;;;;;;8.15;3.67;;;;;;;;;;10355505;28;20219;-77
2022/01/01 19:14:42;;;;;;;4.15;3.10;;;;;;;;;;10355727;28;20243;-77
2022/01/01 19:19:44;;;;;;;4.80;2.65;;;;;;;;;;10360972;28;20231;-77
2022/01/01 19:24:45;;;;;;;11.95;6.93;;;;;;;;;;10341709;28;20228;-77
2022/01/01 19:29:48;;;;;;;5.18;3.45;;;;;;;;;;10360493;28;20583;-77
2022/01/01 19:34:50;;;;;;;3.55;3.22;;;;;;;;;;10342241;28;20216;-78
2022/01/01 19:39:56;;;;;;;4.68;2.85;;;;;;;;;;10367508;28;20215;-77
2022/01/01 19:45:00;;;;;;;3.10;2.90;;;;;;;;;;10368875;28;20207;-77
2022/01/01 19:50:13;;;;;;;3.65;2.25;;;;;;;;;;10361292;28;20241;-77
2022/01/01 19:55:15;;;;;;;3.45;2.70;;;;;;;;;;10355171;28;20204;-77
2022/01/01 20:00:16;;;;;;;3.13;2.90;;;;;;;;;;10360030;28;20318;-77
2022/01/01 20:05:17;;;;;;;4.72;3.45;;;;;;;;;;10361850;28;20235;-77
2022/01/01 20:10:19;;;;;;;4.88;2.47;;;;;;;;;;10365539;28;20219;-77
2022/01/01 20:15:20;;;;;;;5.53;2.33;;;;;;;;;;10366560;28;20208;-77
2022/01/01 20:20:22;;;;;;;5.05;2.60;;;;;;;;;;10367234;28;20881;-77
2022/01/01 20:25:24;;;;;;;3.03;2.30;;;;;;;;;;10360223;28;20235;-77
2022/01/01 20:30:25;;;;;;;3.90;2.40;;;;;;;;;;10355985;28;20243;-77
2022/01/01 20:35:26;;;;;;;2.33;1.90;;;;;;;;;;10365458;28;20208;-77
2022/01/01 20:40:29;;;;;;;2.75;1.90;;;;;;;;;;10362857;28;20199;-77
2022/01/01 20:45:30;;;;;;;3.20;1.98;;;;;;;;;;10366130;28;20820;-77
2022/01/01 20:50:31;;;;;;;6.88;2.10;;;;;;;;;;10364615;28;20976;-77
2022/01/01 20:55:32;;;;;;;2.45;2.25;;;;;;;;;;10340540;28;20291;-77
2022/01/01 21:00:33;;;;;;;3.80;2.17;;;;;;;;;;10363283;28;20310;-77
2022/01/01 21:05:36;;;;;;;3.97;2.40;;;;;;;;;;10359772;28;20191;-76
2022/01/01 21:10:38;;;;;;;3.10;2.03;;;;;;;;;;10361948;28;20220;-77
2022/01/01 21:15:39;;;;;;;2.38;2.17;;;;;;;;;;10365082;28;20196;-77
2022/01/01 21:20:40;;;;;;;3.67;2.60;;;;;;;;;;10359040;28;20206;-77
2022/01/01 21:25:41;;;;;;;4.95;3.10;;;;;;;;;;10346015;28;20220;-77
2022/01/01 21:30:42;;;;;;;3.08;2.67;;;;;;;;;;10363523;28;20224;-77
2022/01/01 21:35:43;;;;;;;4.22;2.42;;;;;;;;;;10341743;28;20195;-77
2022/01/01 21:40:44;;;;;;;4.07;2.67;;;;;;;;;;10362795;28;20195;-77
2022/01/01 21:45:46;;;;;;;4.35;2.80;;;;;;;;;;10365627;28;20226;-77
2022/01/01 21:50:48;;;;;;;5.32;3.25;;;;;;;;;;10358420;28;20252;-77
2022/01/01 21:55:49;;;;;;;5.18;2.65;;;;;;;;;;10345291;28;20245;-77
2022/01/01 22:00:50;;;;;;;2.92;2.58;;;;;;;;;;10345661;28;20313;-77
2022/01/01 22:05:51;;;;;;;3.20;3.00;;;;;;;;;;10359119;28;20729;-77
2022/01/01 22:10:52;;;;;;;5.68;3.22;;;;;;;;;;10359610;28;20238;-77
2022/01/01 22:15:53;;;;;;;4.95;3.13;;;;;;;;;;10346574;28;20287;-77
2022/01/01 22:20:55;;;;;;;3.90;2.85;;;;;;;;;;10361259;28;20230;-77
2022/01/01 22:25:56;;;;;;;4.28;3.30;;;;;;;;;;10362389;28;20231;-77
2022/01/01 22:30:57;;;;;;;4.85;3.38;;;;;;;;;;10343900;28;20235;-77
2022/01/01 22:35:58;;;;;;;4.05;3.20;;;;;;;;;;10360886;28;20303;-77
2022/01/01 22:41:00;;;;;;;3.38;3.17;;;;;;;;;;10359536;28;20204;-77
2022/01/01 22:46:01;;;;;;;5.95;3.95;;;;;;;;;;10359831;28;20223;-77
2022/01/01 22:51:02;;;;;;;7.60;4.05;;;;;;;;;;10363378;28;20685;-77
2022/01/01 22:56:04;;;;;;;4.20;3.83;;;;;;;;;;10363643;28;20650;-77
2022/01/01 23:01:34;;;;;;;5.30;4.85;;;;;;;;;;10359636;28;20227;-77
2022/01/01 23:06:36;;;;;;;4.82;4.25;;;;;;;;;;10345295;28;20207;-77
2022/01/01 23:11:37;;;;;;;7.07;5.13;;;;;;;;;;10356261;28;20963;-77
2022/01/01 23:16:43;;;;;;;5.15;4.50;;;;;;;;;;10368268;28;20258;-77
2022/01/01 23:21:45;;;;;;;5.15;4.75;;;;;;;;;;10367092;28;20201;-75
2022/01/01 23:26:50;;;;;;;5.13;4.65;;;;;;;;;;10370301;28;20663;-75
2022/01/01 23:31:51;;;;;;;5.10;4.78;;;;;;;;;;10370056;28;20310;-75
2022/01/01 23:36:56;;;;;;;5.95;4.95;;;;;;;;;;10349883;28;20208;-75
2022/01/01 23:41:58;;;;;;;5.97;5.40;;;;;;;;;;10370164;28;21062;-75
2022/01/01 23:47:00;;;;;;;6.05;5.30;;;;;;;;;;10367021;28;22098;-76
2022/01/01 23:52:08;;;;;;;7.43;6.53;;;;;;;;;;10350156;28;20625;-75
2022/01/01 23:57:12;;;;;;;11.32;7.93;;;;;;;;;;10368227;28;20667;-75
